sensor_id;sensor_type;location;lat;lon;timestamp;P1;durP1;ratioP1;P2;durP2;ratioP2
75787;SDS011;64406;50.024;14.492;2023-08-07T00:01:51;0.10;;;0.10;;
75787;SDS011;64406;50.024;14.492;2023-08-07T00:04:16;0.90;;;0.10;;
75787;SDS011;64406;50.024;14.492;2023-08-07T00:06:42;0.25;;;0.25;;
75787;SDS011;64406;50.024;14.492;2023-08-07T00:09:08;1.77;;;0.20;;
75787;SDS011;64406;50.024;14.492;2023-08-07T00:11:33;0.20;;;0.10;;
75787;SDS011;64406;50.024;14.492;2023-08-07T00:13:59;0.00;;;0.00;;
75787;SDS011;64406;50.024;14.492;2023-08-07T00:16:26;0.45;;;0.20;;
75787;SDS011;64406;50.024;14.492;2023-08-07T00:18:51;0.10;;;0.10;;
75787;SDS011;64406;50.024;14.492;2023-08-07T00:21:21;0.13;;;0.13;;
75787;SDS011;64406;50.024;14.492;2023-08-07T00:23:48;0.30;;;0.10;;
75787;SDS011;64406;50.024;14.492;2023-08-07T00:26:15;0.35;;;0.20;;
75787;SDS011;64406;50.024;14.492;2023-08-07T00:28:41;0.32;;;0.10;;
75787;SDS011;64406;50.024;14.492;2023-08-07T00:31:07;0.20;;;0.20;;
75787;SDS011;64406;50.024;14.492;2023-08-07T00:33:32;0.17;;;0.10;;
75787;SDS011;64406;50.024;14.492;2023-08-07T00:35:58;0.03;;;0.03;;
75787;SDS011;64406;50.024;14.492;2023-08-07T00:38:23;0.00;;;0.00;;
75787;SDS011;64406;50.024;14.492;2023-08-07T00:40:49;1.17;;;0.30;;
75787;SDS011;64406;50.024;14.492;2023-08-07T00:43:14;1.08;;;0.10;;
75787;SDS011;64406;50.024;14.492;2023-08-07T00:45:41;0.08;;;0.00;;
75787;SDS011;64406;50.024;14.492;2023-08-07T00:48:08;0.15;;;0.10;;
75787;SDS011;64406;50.024;14.492;2023-08-07T00:50:34;0.00;;;0.00;;
75787;SDS011;64406;50.024;14.492;2023-08-07T00:53:01;0.10;;;0.10;;
75787;SDS011;64406;50.024;14.492;2023-08-07T00:55:27;0.10;;;0.10;;
75787;SDS011;64406;50.024;14.492;2023-08-07T00:57:53;0.10;;;0.10;;
75787;SDS011;64406;50.024;14.492;2023-08-07T01:00:19;0.10;;;0.10;;
75787;SDS011;64406;50.024;14.492;2023-08-07T01:02:46;0.10;;;0.10;;
75787;SDS011;64406;50.024;14.492;2023-08-07T01:05:16;2.22;;;0.25;;
75787;SDS011;64406;50.024;14.492;2023-08-07T01:07:43;0.05;;;0.05;;
75787;SDS011;64406;50.024;14.492;2023-08-07T01:10:12;0.85;;;0.10;;
75787;SDS011;64406;50.024;14.492;2023-08-07T01:12:42;2.28;;;0.20;;
75787;SDS011;64406;50.024;14.492;2023-08-07T01:15:18;0.10;;;0.10;;
75787;SDS011;64406;50.024;14.492;2023-08-07T01:17:50;0.00;;;0.00;;
75787;SDS011;64406;50.024;14.492;2023-08-07T01:20:19;0.00;;;0.00;;
75787;SDS011;64406;50.024;14.492;2023-08-07T01:22:45;0.05;;;0.05;;
75787;SDS011;64406;50.024;14.492;2023-08-07T01:25:10;0.00;;;0.00;;
75787;SDS011;64406;50.024;14.492;2023-08-07T01:27:36;0.00;;;0.00;;
75787;SDS011;64406;50.024;14.492;2023-08-07T01:33:16;0.28;;;0.10;;
75787;SDS011;64406;50.024;14.492;2023-08-07T01:35:49;0.28;;;0.10;;
75787;SDS011;64406;50.024;14.492;2023-08-07T01:38:18;0.10;;;0.10;;
75787;SDS011;64406;50.024;14.492;2023-08-07T01:40:46;1.55;;;0.20;;
75787;SDS011;64406;50.024;14.492;2023-08-07T01:43:13;0.10;;;0.10;;
75787;SDS011;64406;50.024;14.492;2023-08-07T01:45:39;0.15;;;0.03;;
75787;SDS011;64406;50.024;14.492;2023-08-07T01:48:04;0.20;;;0.13;;
75787;SDS011;64406;50.024;14.492;2023-08-07T01:50:30;0.17;;;0.05;;
75787;SDS011;64406;50.024;14.492;2023-08-07T01:52:56;0.28;;;0.10;;
75787;SDS011;64406;50.024;14.492;2023-08-07T01:55:22;0.00;;;0.00;;
75787;SDS011;64406;50.024;14.492;2023-08-07T01:57:47;0.10;;;0.10;;
75787;SDS011;64406;50.024;14.492;2023-08-07T02:00:13;0.10;;;0.10;;
75787;SDS011;64406;50.024;14.492;2023-08-07T02:02:39;0.05;;;0.05;;
75787;SDS011;64406;50.024;14.492;2023-08-07T02:05:05;0.10;;;0.10;;
75787;SDS011;64406;50.024;14.492;2023-08-07T02:07:30;0.65;;;0.20;;
75787;SDS011;64406;50.024;14.492;2023-08-07T02:09:56;0.03;;;0.03;;
75787;SDS011;64406;50.024;14.492;2023-08-07T02:12:22;0.40;;;0.15;;
75787;SDS011;64406;50.024;14.492;2023-08-07T02:14:49;0.20;;;0.20;;
75787;SDS011;64406;50.024;14.492;2023-08-07T02:17:15;0.10;;;0.10;;
75787;SDS011;64406;50.024;14.492;2023-08-07T02:19:41;0.85;;;0.47;;
75787;SDS011;64406;50.024;14.492;2023-08-07T02:22:06;0.25;;;0.20;;
75787;SDS011;64406;50.024;14.492;2023-08-07T02:24:32;0.28;;;0.28;;
75787;SDS011;64406;50.024;14.492;2023-08-07T02:26:57;1.08;;;0.17;;
75787;SDS011;64406;50.024;14.492;2023-08-07T02:29:23;0.10;;;0.10;;
75787;SDS011;64406;50.024;14.492;2023-08-07T02:31:48;0.30;;;0.30;;
75787;SDS011;64406;50.024;14.492;2023-08-07T02:34:14;0.55;;;0.38;;
75787;SDS011;64406;50.024;14.492;2023-08-07T02:36:40;0.30;;;0.30;;
75787;SDS011;64406;50.024;14.492;2023-08-07T02:39:06;0.28;;;0.28;;
75787;SDS011;64406;50.024;14.492;2023-08-07T02:41:31;0.30;;;0.30;;
75787;SDS011;64406;50.024;14.492;2023-08-07T02:43:57;0.20;;;0.20;;
75787;SDS011;64406;50.024;14.492;2023-08-07T02:46:23;0.55;;;0.25;;
75787;SDS011;64406;50.024;14.492;2023-08-07T02:48:48;0.40;;;0.40;;
75787;SDS011;64406;50.024;14.492;2023-08-07T02:51:14;1.27;;;0.30;;
75787;SDS011;64406;50.024;14.492;2023-08-07T02:53:40;0.75;;;0.30;;
75787;SDS011;64406;50.024;14.492;2023-08-07T02:56:05;0.52;;;0.40;;
75787;SDS011;64406;50.024;14.492;2023-08-07T02:58:31;0.22;;;0.22;;
75787;SDS011;64406;50.024;14.492;2023-08-07T03:00:56;0.43;;;0.43;;
75787;SDS011;64406;50.024;14.492;2023-08-07T03:03:28;0.60;;;0.40;;
75787;SDS011;64406;50.024;14.492;2023-08-07T03:05:54;0.40;;;0.40;;
75787;SDS011;64406;50.024;14.492;2023-08-07T03:08:19;0.35;;;0.35;;
75787;SDS011;64406;50.024;14.492;2023-08-07T03:10:51;0.30;;;0.30;;
75787;SDS011;64406;50.024;14.492;2023-08-07T03:13:18;0.30;;;0.30;;
75787;SDS011;64406;50.024;14.492;2023-08-07T03:15:43;0.20;;;0.20;;
75787;SDS011;64406;50.024;14.492;2023-08-07T03:18:09;0.30;;;0.30;;
75787;SDS011;64406;50.024;14.492;2023-08-07T03:20:37;0.20;;;0.20;;
75787;SDS011;64406;50.024;14.492;2023-08-07T03:23:03;1.17;;;0.40;;
75787;SDS011;64406;50.024;14.492;2023-08-07T03:25:29;0.32;;;0.32;;
75787;SDS011;64406;50.024;14.492;2023-08-07T03:27:54;0.20;;;0.20;;
75787;SDS011;64406;50.024;14.492;2023-08-07T03:30:20;0.30;;;0.30;;
75787;SDS011;64406;50.024;14.492;2023-08-07T03:32:45;2.58;;;0.30;;
75787;SDS011;64406;50.024;14.492;2023-08-07T03:35:11;0.88;;;0.20;;
75787;SDS011;64406;50.024;14.492;2023-08-07T03:37:37;0.98;;;0.30;;
75787;SDS011;64406;50.024;14.492;2023-08-07T03:40:02;0.20;;;0.20;;
75787;SDS011;64406;50.024;14.492;2023-08-07T03:42:28;0.30;;;0.30;;
75787;SDS011;64406;50.024;14.492;2023-08-07T03:44:54;0.32;;;0.28;;
75787;SDS011;64406;50.024;14.492;2023-08-07T03:47:19;0.40;;;0.38;;
75787;SDS011;64406;50.024;14.492;2023-08-07T03:49:45;0.30;;;0.30;;
75787;SDS011;64406;50.024;14.492;2023-08-07T03:52:10;2.65;;;0.20;;
75787;SDS011;64406;50.024;14.492;2023-08-07T03:54:36;0.93;;;0.30;;
75787;SDS011;64406;50.024;14.492;2023-08-07T03:57:02;0.20;;;0.20;;
75787;SDS011;64406;50.024;14.492;2023-08-07T03:59:27;2.05;;;0.20;;
75787;SDS011;64406;50.024;14.492;2023-08-07T04:01:53;0.25;;;0.20;;
75787;SDS011;64406;50.024;14.492;2023-08-07T04:04:18;0.28;;;0.28;;
75787;SDS011;64406;50.024;14.492;2023-08-07T04:06:44;2.28;;;0.30;;
75787;SDS011;64406;50.024;14.492;2023-08-07T04:09:11;1.88;;;0.30;;
75787;SDS011;64406;50.024;14.492;2023-08-07T04:11:37;0.70;;;0.32;;
75787;SDS011;64406;50.024;14.492;2023-08-07T04:14:02;0.20;;;0.20;;
75787;SDS011;64406;50.024;14.492;2023-08-07T04:16:29;0.20;;;0.20;;
75787;SDS011;64406;50.024;14.492;2023-08-07T04:18:56;0.35;;;0.35;;
75787;SDS011;64406;50.024;14.492;2023-08-07T04:21:22;0.30;;;0.30;;
75787;SDS011;64406;50.024;14.492;2023-08-07T04:23:48;0.57;;;0.40;;
75787;SDS011;64406;50.024;14.492;2023-08-07T04:26:14;0.30;;;0.30;;
75787;SDS011;64406;50.024;14.492;2023-08-07T04:28:39;0.30;;;0.30;;
75787;SDS011;64406;50.024;14.492;2023-08-07T04:31:05;0.10;;;0.10;;
75787;SDS011;64406;50.024;14.492;2023-08-07T04:33:31;0.30;;;0.30;;
75787;SDS011;64406;50.024;14.492;2023-08-07T04:35:57;1.35;;;0.40;;
75787;SDS011;64406;50.024;14.492;2023-08-07T04:38:22;0.85;;;0.32;;
75787;SDS011;64406;50.024;14.492;2023-08-07T04:40:48;1.00;;;0.30;;
75787;SDS011;64406;50.024;14.492;2023-08-07T04:43:15;2.08;;;0.40;;
75787;SDS011;64406;50.024;14.492;2023-08-07T04:45:42;0.35;;;0.28;;
75787;SDS011;64406;50.024;14.492;2023-08-07T04:48:10;1.23;;;0.50;;
75787;SDS011;64406;50.024;14.492;2023-08-07T04:50:37;1.45;;;0.43;;
75787;SDS011;64406;50.024;14.492;2023-08-07T04:53:02;0.63;;;0.43;;
75787;SDS011;64406;50.024;14.492;2023-08-07T04:55:30;0.43;;;0.43;;
75787;SDS011;64406;50.024;14.492;2023-08-07T04:57:55;1.65;;;0.30;;
75787;SDS011;64406;50.024;14.492;2023-08-07T05:00:22;0.73;;;0.47;;
75787;SDS011;64406;50.024;14.492;2023-08-07T05:02:48;1.08;;;0.47;;
75787;SDS011;64406;50.024;14.492;2023-08-07T05:05:14;0.52;;;0.40;;
75787;SDS011;64406;50.024;14.492;2023-08-07T05:07:40;0.50;;;0.20;;
75787;SDS011;64406;50.024;14.492;2023-08-07T05:10:06;1.05;;;0.50;;
75787;SDS011;64406;50.024;14.492;2023-08-07T05:12:32;0.88;;;0.63;;
75787;SDS011;64406;50.024;14.492;2023-08-07T05:14:58;0.93;;;0.60;;
75787;SDS011;64406;50.024;14.492;2023-08-07T05:17:24;0.52;;;0.40;;
75787;SDS011;64406;50.024;14.492;2023-08-07T05:19:49;0.60;;;0.40;;
75787;SDS011;64406;50.024;14.492;2023-08-07T05:22:15;1.35;;;0.50;;
75787;SDS011;64406;50.024;14.492;2023-08-07T05:24:41;0.60;;;0.60;;
75787;SDS011;64406;50.024;14.492;2023-08-07T05:27:09;0.30;;;0.30;;
75787;SDS011;64406;50.024;14.492;2023-08-07T05:29:35;1.33;;;0.50;;
75787;SDS011;64406;50.024;14.492;2023-08-07T05:32:08;0.30;;;0.30;;
75787;SDS011;64406;50.024;14.492;2023-08-07T05:34:35;1.00;;;0.50;;
75787;SDS011;64406;50.024;14.492;2023-08-07T05:37:01;0.30;;;0.30;;
75787;SDS011;64406;50.024;14.492;2023-08-07T05:39:26;0.38;;;0.38;;
75787;SDS011;64406;50.024;14.492;2023-08-07T05:41:52;0.68;;;0.50;;
75787;SDS011;64406;50.024;14.492;2023-08-07T05:44:20;0.57;;;0.50;;
75787;SDS011;64406;50.024;14.492;2023-08-07T05:46:45;0.88;;;0.40;;
75787;SDS011;64406;50.024;14.492;2023-08-07T05:49:11;0.40;;;0.40;;
75787;SDS011;64406;50.024;14.492;2023-08-07T05:51:36;0.40;;;0.40;;
75787;SDS011;64406;50.024;14.492;2023-08-07T05:54:02;0.80;;;0.22;;
75787;SDS011;64406;50.024;14.492;2023-08-07T05:56:28;1.20;;;0.35;;
75787;SDS011;64406;50.024;14.492;2023-08-07T05:58:53;0.65;;;0.40;;
75787;SDS011;64406;50.024;14.492;2023-08-07T06:01:19;1.13;;;0.50;;
75787;SDS011;64406;50.024;14.492;2023-08-07T06:03:44;0.28;;;0.28;;
75787;SDS011;64406;50.024;14.492;2023-08-07T06:06:10;1.02;;;0.50;;
75787;SDS011;64406;50.024;14.492;2023-08-07T06:08:36;0.30;;;0.30;;
75787;SDS011;64406;50.024;14.492;2023-08-07T06:11:01;0.43;;;0.38;;
75787;SDS011;64406;50.024;14.492;2023-08-07T06:13:33;0.85;;;0.40;;
75787;SDS011;64406;50.024;14.492;2023-08-07T06:15:59;0.30;;;0.30;;
75787;SDS011;64406;50.024;14.492;2023-08-07T06:18:25;1.20;;;0.40;;
75787;SDS011;64406;50.024;14.492;2023-08-07T06:20:51;0.30;;;0.30;;
75787;SDS011;64406;50.024;14.492;2023-08-07T06:23:16;1.25;;;0.43;;
75787;SDS011;64406;50.024;14.492;2023-08-07T06:25:42;0.82;;;0.35;;
75787;SDS011;64406;50.024;14.492;2023-08-07T06:28:08;0.30;;;0.30;;
75787;SDS011;64406;50.024;14.492;2023-08-07T06:30:33;0.45;;;0.43;;
75787;SDS011;64406;50.024;14.492;2023-08-07T06:32:59;0.50;;;0.40;;
75787;SDS011;64406;50.024;14.492;2023-08-07T06:35:25;0.35;;;0.30;;
75787;SDS011;64406;50.024;14.492;2023-08-07T06:37:51;0.25;;;0.25;;
75787;SDS011;64406;50.024;14.492;2023-08-07T06:40:16;1.45;;;0.40;;
75787;SDS011;64406;50.024;14.492;2023-08-07T06:42:42;1.17;;;0.32;;
75787;SDS011;64406;50.024;14.492;2023-08-07T06:45:07;0.40;;;0.40;;
75787;SDS011;64406;50.024;14.492;2023-08-07T06:47:34;0.30;;;0.30;;
75787;SDS011;64406;50.024;14.492;2023-08-07T06:49:59;0.17;;;0.15;;
75787;SDS011;64406;50.024;14.492;2023-08-07T06:52:25;0.82;;;0.30;;
75787;SDS011;64406;50.024;14.492;2023-08-07T06:54:50;0.50;;;0.50;;
75787;SDS011;64406;50.024;14.492;2023-08-07T06:57:17;0.35;;;0.32;;
75787;SDS011;64406;50.024;14.492;2023-08-07T06:59:43;0.45;;;0.45;;
75787;SDS011;64406;50.024;14.492;2023-08-07T07:02:09;0.90;;;0.47;;
75787;SDS011;64406;50.024;14.492;2023-08-07T07:04:35;0.40;;;0.40;;
75787;SDS011;64406;50.024;14.492;2023-08-07T07:07:02;0.60;;;0.60;;
75787;SDS011;64406;50.024;14.492;2023-08-07T07:09:27;3.08;;;0.55;;
75787;SDS011;64406;50.024;14.492;2023-08-07T07:11:54;1.55;;;0.63;;
75787;SDS011;64406;50.024;14.492;2023-08-07T07:14:20;0.43;;;0.43;;
75787;SDS011;64406;50.024;14.492;2023-08-07T07:16:47;1.02;;;0.38;;
75787;SDS011;64406;50.024;14.492;2023-08-07T07:19:12;1.60;;;0.90;;
75787;SDS011;64406;50.024;14.492;2023-08-07T07:21:38;1.17;;;0.80;;
75787;SDS011;64406;50.024;14.492;2023-08-07T07:24:04;1.45;;;0.50;;
75787;SDS011;64406;50.024;14.492;2023-08-07T07:26:29;1.05;;;0.70;;
75787;SDS011;64406;50.024;14.492;2023-08-07T07:28:56;1.60;;;0.80;;
75787;SDS011;64406;50.024;14.492;2023-08-07T07:31:21;3.22;;;0.88;;
75787;SDS011;64406;50.024;14.492;2023-08-07T07:33:47;1.00;;;0.90;;
75787;SDS011;64406;50.024;14.492;2023-08-07T07:36:14;1.02;;;0.90;;
75787;SDS011;64406;50.024;14.492;2023-08-07T07:38:41;1.17;;;0.90;;
75787;SDS011;64406;50.024;14.492;2023-08-07T07:41:06;1.65;;;0.85;;
75787;SDS011;64406;50.024;14.492;2023-08-07T07:43:35;0.80;;;0.70;;
75787;SDS011;64406;50.024;14.492;2023-08-07T07:46:01;0.98;;;0.75;;
75787;SDS011;64406;50.024;14.492;2023-08-07T07:48:26;1.30;;;1.00;;
75787;SDS011;64406;50.024;14.492;2023-08-07T07:50:57;1.98;;;1.45;;
75787;SDS011;64406;50.024;14.492;2023-08-07T07:53:24;2.20;;;0.90;;
75787;SDS011;64406;50.024;14.492;2023-08-07T07:55:50;0.90;;;0.75;;
75787;SDS011;64406;50.024;14.492;2023-08-07T07:58:15;0.57;;;0.57;;
75787;SDS011;64406;50.024;14.492;2023-08-07T08:00:41;0.63;;;0.63;;
75787;SDS011;64406;50.024;14.492;2023-08-07T08:03:07;1.45;;;0.88;;
75787;SDS011;64406;50.024;14.492;2023-08-07T08:05:33;0.70;;;0.70;;
75787;SDS011;64406;50.024;14.492;2023-08-07T08:08:00;1.25;;;0.90;;
75787;SDS011;64406;50.024;14.492;2023-08-07T08:10:26;0.75;;;0.68;;
75787;SDS011;64406;50.024;14.492;2023-08-07T08:12:55;3.40;;;0.80;;
75787;SDS011;64406;50.024;14.492;2023-08-07T08:15:21;0.80;;;0.80;;
75787;SDS011;64406;50.024;14.492;2023-08-07T08:17:47;1.10;;;0.77;;
75787;SDS011;64406;50.024;14.492;2023-08-07T08:20:13;0.25;;;0.25;;
75787;SDS011;64406;50.024;14.492;2023-08-07T08:22:45;0.60;;;0.57;;
75787;SDS011;64406;50.024;14.492;2023-08-07T08:25:11;0.47;;;0.47;;
75787;SDS011;64406;50.024;14.492;2023-08-07T08:27:39;0.70;;;0.40;;
75787;SDS011;64406;50.024;14.492;2023-08-07T08:30:05;0.55;;;0.55;;
75787;SDS011;64406;50.024;14.492;2023-08-07T08:32:31;1.17;;;0.70;;
75787;SDS011;64406;50.024;14.492;2023-08-07T08:34:56;0.55;;;0.50;;
75787;SDS011;64406;50.024;14.492;2023-08-07T08:37:22;1.77;;;0.70;;
75787;SDS011;64406;50.024;14.492;2023-08-07T08:39:48;0.88;;;0.70;;
75787;SDS011;64406;50.024;14.492;2023-08-07T08:42:14;0.80;;;0.65;;
75787;SDS011;64406;50.024;14.492;2023-08-07T08:44:48;0.85;;;0.50;;
75787;SDS011;64406;50.024;14.492;2023-08-07T08:49:45;1.17;;;0.52;;
75787;SDS011;64406;50.024;14.492;2023-08-07T08:52:12;0.55;;;0.55;;
75787;SDS011;64406;50.024;14.492;2023-08-07T08:54:39;0.40;;;0.40;;
75787;SDS011;64406;50.024;14.492;2023-08-07T08:57:06;0.50;;;0.43;;
75787;SDS011;64406;50.024;14.492;2023-08-07T08:59:32;0.45;;;0.45;;
75787;SDS011;64406;50.024;14.492;2023-08-07T09:01:59;1.80;;;0.60;;
75787;SDS011;64406;50.024;14.492;2023-08-07T09:04:24;2.00;;;0.52;;
75787;SDS011;64406;50.024;14.492;2023-08-07T09:06:50;0.60;;;0.60;;
75787;SDS011;64406;50.024;14.492;2023-08-07T09:09:16;1.77;;;0.47;;
75787;SDS011;64406;50.024;14.492;2023-08-07T09:11:45;0.60;;;0.50;;
75787;SDS011;64406;50.024;14.492;2023-08-07T09:14:14;1.63;;;0.55;;
75787;SDS011;64406;50.024;14.492;2023-08-07T09:16:43;0.75;;;0.75;;
75787;SDS011;64406;50.024;14.492;2023-08-07T09:19:11;0.75;;;0.70;;
75787;SDS011;64406;50.024;14.492;2023-08-07T09:21:37;1.90;;;0.70;;
75787;SDS011;64406;50.024;14.492;2023-08-07T09:24:02;1.55;;;0.60;;
75787;SDS011;64406;50.024;14.492;2023-08-07T09:26:28;1.05;;;0.73;;
75787;SDS011;64406;50.024;14.492;2023-08-07T09:28:57;1.08;;;0.70;;
75787;SDS011;64406;50.024;14.492;2023-08-07T09:31:23;0.65;;;0.52;;
75787;SDS011;64406;50.024;14.492;2023-08-07T09:33:51;1.02;;;0.57;;
75787;SDS011;64406;50.024;14.492;2023-08-07T09:36:17;0.43;;;0.43;;
75787;SDS011;64406;50.024;14.492;2023-08-07T09:38:45;0.88;;;0.50;;
75787;SDS011;64406;50.024;14.492;2023-08-07T09:41:17;0.47;;;0.47;;
75787;SDS011;64406;50.024;14.492;2023-08-07T09:43:43;1.38;;;0.60;;
75787;SDS011;64406;50.024;14.492;2023-08-07T09:46:09;0.40;;;0.40;;
75787;SDS011;64406;50.024;14.492;2023-08-07T09:48:41;0.50;;;0.50;;
75787;SDS011;64406;50.024;14.492;2023-08-07T09:51:08;1.10;;;0.60;;
75787;SDS011;64406;50.024;14.492;2023-08-07T09:53:34;0.60;;;0.60;;
75787;SDS011;64406;50.024;14.492;2023-08-07T09:56:00;0.80;;;0.80;;
75787;SDS011;64406;50.024;14.492;2023-08-07T09:58:26;0.68;;;0.60;;
75787;SDS011;64406;50.024;14.492;2023-08-07T10:00:53;1.42;;;0.60;;
75787;SDS011;64406;50.024;14.492;2023-08-07T10:03:20;0.55;;;0.55;;
75787;SDS011;64406;50.024;14.492;2023-08-07T10:05:48;1.02;;;0.57;;
75787;SDS011;64406;50.024;14.492;2023-08-07T10:08:14;1.08;;;0.55;;
75787;SDS011;64406;50.024;14.492;2023-08-07T10:10:41;0.75;;;0.60;;
75787;SDS011;64406;50.024;14.492;2023-08-07T10:13:06;0.73;;;0.60;;
75787;SDS011;64406;50.024;14.492;2023-08-07T10:15:33;1.52;;;0.55;;
75787;SDS011;64406;50.024;14.492;2023-08-07T10:18:00;1.73;;;0.70;;
75787;SDS011;64406;50.024;14.492;2023-08-07T10:20:26;1.05;;;0.70;;
75787;SDS011;64406;50.024;14.492;2023-08-07T10:22:53;0.55;;;0.50;;
75787;SDS011;64406;50.024;14.492;2023-08-07T10:25:28;0.60;;;0.60;;
75787;SDS011;64406;50.024;14.492;2023-08-07T10:27:55;0.55;;;0.55;;
75787;SDS011;64406;50.024;14.492;2023-08-07T10:30:23;1.65;;;0.70;;
75787;SDS011;64406;50.024;14.492;2023-08-07T10:32:50;0.70;;;0.50;;
75787;SDS011;64406;50.024;14.492;2023-08-07T10:35:29;0.60;;;0.60;;
75787;SDS011;64406;50.024;14.492;2023-08-07T10:37:57;0.70;;;0.60;;
75787;SDS011;64406;50.024;14.492;2023-08-07T10:40:31;0.70;;;0.55;;
75787;SDS011;64406;50.024;14.492;2023-08-07T10:42:57;0.80;;;0.73;;
75787;SDS011;64406;50.024;14.492;2023-08-07T10:45:24;0.55;;;0.50;;
75787;SDS011;64406;50.024;14.492;2023-08-07T10:50:28;2.25;;;0.73;;
75787;SDS011;64406;50.024;14.492;2023-08-07T10:52:54;0.85;;;0.65;;
75787;SDS011;64406;50.024;14.492;2023-08-07T10:55:20;1.35;;;0.70;;
75787;SDS011;64406;50.024;14.492;2023-08-07T10:57:48;0.95;;;0.60;;
75787;SDS011;64406;50.024;14.492;2023-08-07T11:00:14;1.10;;;0.50;;
75787;SDS011;64406;50.024;14.492;2023-08-07T11:02:41;0.35;;;0.35;;
75787;SDS011;64406;50.024;14.492;2023-08-07T11:05:07;0.50;;;0.50;;
75787;SDS011;64406;50.024;14.492;2023-08-07T11:07:33;0.50;;;0.50;;
75787;SDS011;64406;50.024;14.492;2023-08-07T11:09:59;1.98;;;0.63;;
75787;SDS011;64406;50.024;14.492;2023-08-07T11:12:25;1.40;;;0.52;;
75787;SDS011;64406;50.024;14.492;2023-08-07T11:14:51;0.45;;;0.45;;
75787;SDS011;64406;50.024;14.492;2023-08-07T11:17:26;1.15;;;0.60;;
75787;SDS011;64406;50.024;14.492;2023-08-07T11:19:54;0.43;;;0.43;;
75787;SDS011;64406;50.024;14.492;2023-08-07T11:22:20;0.43;;;0.43;;
75787;SDS011;64406;50.024;14.492;2023-08-07T11:24:46;0.70;;;0.52;;
75787;SDS011;64406;50.024;14.492;2023-08-07T11:27:12;0.50;;;0.40;;
75787;SDS011;64406;50.024;14.492;2023-08-07T11:29:38;0.57;;;0.50;;
75787;SDS011;64406;50.024;14.492;2023-08-07T11:32:04;0.47;;;0.40;;
75787;SDS011;64406;50.024;14.492;2023-08-07T11:34:30;0.63;;;0.32;;
75787;SDS011;64406;50.024;14.492;2023-08-07T11:36:56;0.57;;;0.57;;
75787;SDS011;64406;50.024;14.492;2023-08-07T11:39:23;0.40;;;0.40;;
75787;SDS011;64406;50.024;14.492;2023-08-07T11:41:53;2.55;;;0.50;;
75787;SDS011;64406;50.024;14.492;2023-08-07T11:44:19;0.45;;;0.45;;
75787;SDS011;64406;50.024;14.492;2023-08-07T11:46:44;0.47;;;0.47;;
75787;SDS011;64406;50.024;14.492;2023-08-07T11:49:10;0.95;;;0.40;;
75787;SDS011;64406;50.024;14.492;2023-08-07T11:51:37;1.63;;;0.65;;
75787;SDS011;64406;50.024;14.492;2023-08-07T11:54:03;0.98;;;0.50;;
75787;SDS011;64406;50.024;14.492;2023-08-07T11:56:28;0.40;;;0.40;;
75787;SDS011;64406;50.024;14.492;2023-08-07T11:58:54;0.73;;;0.52;;
75787;SDS011;64406;50.024;14.492;2023-08-07T12:01:22;0.73;;;0.52;;
75787;SDS011;64406;50.024;14.492;2023-08-07T12:04:31;2.78;;;0.57;;
75787;SDS011;64406;50.024;14.492;2023-08-07T12:06:38;0.57;;;0.57;;
75787;SDS011;64406;50.024;14.492;2023-08-07T12:09:17;0.40;;;0.40;;
75787;SDS011;64406;50.024;14.492;2023-08-07T12:11:43;1.90;;;0.65;;
75787;SDS011;64406;50.024;14.492;2023-08-07T12:14:08;0.77;;;0.68;;
75787;SDS011;64406;50.024;14.492;2023-08-07T12:16:43;0.40;;;0.32;;
75787;SDS011;64406;50.024;14.492;2023-08-07T12:19:11;1.02;;;0.50;;
75787;SDS011;64406;50.024;14.492;2023-08-07T12:21:36;1.80;;;0.63;;
75787;SDS011;64406;50.024;14.492;2023-08-07T12:24:04;0.85;;;0.50;;
75787;SDS011;64406;50.024;14.492;2023-08-07T12:26:32;1.00;;;0.57;;
75787;SDS011;64406;50.024;14.492;2023-08-07T12:28:57;2.03;;;0.52;;
75787;SDS011;64406;50.024;14.492;2023-08-07T12:31:23;0.47;;;0.40;;
75787;SDS011;64406;50.024;14.492;2023-08-07T12:33:49;0.60;;;0.60;;
75787;SDS011;64406;50.024;14.492;2023-08-07T12:36:14;0.60;;;0.60;;
75787;SDS011;64406;50.024;14.492;2023-08-07T12:38:40;0.75;;;0.60;;
75787;SDS011;64406;50.024;14.492;2023-08-07T12:41:06;1.33;;;0.45;;
75787;SDS011;64406;50.024;14.492;2023-08-07T12:43:32;5.07;;;0.60;;
75787;SDS011;64406;50.024;14.492;2023-08-07T12:45:58;0.43;;;0.43;;
75787;SDS011;64406;50.024;14.492;2023-08-07T12:48:24;0.30;;;0.30;;
75787;SDS011;64406;50.024;14.492;2023-08-07T12:50:52;3.20;;;0.50;;
75787;SDS011;64406;50.024;14.492;2023-08-07T12:53:18;0.95;;;0.55;;
75787;SDS011;64406;50.024;14.492;2023-08-07T12:55:43;1.85;;;0.70;;
75787;SDS011;64406;50.024;14.492;2023-08-07T12:58:09;1.00;;;0.40;;
75787;SDS011;64406;50.024;14.492;2023-08-07T13:00:35;0.55;;;0.55;;
75787;SDS011;64406;50.024;14.492;2023-08-07T13:03:01;0.73;;;0.52;;
75787;SDS011;64406;50.024;14.492;2023-08-07T13:05:27;0.35;;;0.35;;
75787;SDS011;64406;50.024;14.492;2023-08-07T13:07:54;0.50;;;0.50;;
75787;SDS011;64406;50.024;14.492;2023-08-07T13:10:21;1.27;;;0.43;;
75787;SDS011;64406;50.024;14.492;2023-08-07T13:12:48;0.60;;;0.50;;
75787;SDS011;64406;50.024;14.492;2023-08-07T13:15:14;0.40;;;0.40;;
75787;SDS011;64406;50.024;14.492;2023-08-07T13:17:41;0.63;;;0.43;;
75787;SDS011;64406;50.024;14.492;2023-08-07T13:20:08;0.60;;;0.55;;
75787;SDS011;64406;50.024;14.492;2023-08-07T13:22:35;1.80;;;0.60;;
75787;SDS011;64406;50.024;14.492;2023-08-07T13:25:05;0.95;;;0.38;;
75787;SDS011;64406;50.024;14.492;2023-08-07T13:27:32;0.93;;;0.47;;
75787;SDS011;64406;50.024;14.492;2023-08-07T13:29:58;2.47;;;0.52;;
75787;SDS011;64406;50.024;14.492;2023-08-07T13:32:25;0.45;;;0.45;;
75787;SDS011;64406;50.024;14.492;2023-08-07T13:34:51;0.50;;;0.50;;
75787;SDS011;64406;50.024;14.492;2023-08-07T13:37:17;0.45;;;0.43;;
75787;SDS011;64406;50.024;14.492;2023-08-07T13:39:42;0.38;;;0.35;;
75787;SDS011;64406;50.024;14.492;2023-08-07T13:42:08;0.57;;;0.43;;
75787;SDS011;64406;50.024;14.492;2023-08-07T13:44:35;0.50;;;0.50;;
75787;SDS011;64406;50.024;14.492;2023-08-07T13:47:02;0.85;;;0.50;;
75787;SDS011;64406;50.024;14.492;2023-08-07T13:49:28;2.78;;;0.40;;
75787;SDS011;64406;50.024;14.492;2023-08-07T13:51:54;0.38;;;0.38;;
75787;SDS011;64406;50.024;14.492;2023-08-07T13:54:19;0.30;;;0.30;;
75787;SDS011;64406;50.024;14.492;2023-08-07T13:56:45;0.38;;;0.38;;
75787;SDS011;64406;50.024;14.492;2023-08-07T13:59:11;0.40;;;0.40;;
75787;SDS011;64406;50.024;14.492;2023-08-07T14:01:36;1.65;;;0.30;;
75787;SDS011;64406;50.024;14.492;2023-08-07T14:04:02;0.30;;;0.30;;
75787;SDS011;64406;50.024;14.492;2023-08-07T14:06:28;3.30;;;0.40;;
75787;SDS011;64406;50.024;14.492;2023-08-07T14:08:54;0.52;;;0.40;;
75787;SDS011;64406;50.024;14.492;2023-08-07T14:11:20;1.85;;;0.50;;
75787;SDS011;64406;50.024;14.492;2023-08-07T14:13:45;0.40;;;0.40;;
75787;SDS011;64406;50.024;14.492;2023-08-07T14:16:12;0.32;;;0.32;;
75787;SDS011;64406;50.024;14.492;2023-08-07T14:18:38;0.30;;;0.30;;
75787;SDS011;64406;50.024;14.492;2023-08-07T14:21:04;0.32;;;0.32;;
75787;SDS011;64406;50.024;14.492;2023-08-07T14:23:29;0.25;;;0.25;;
75787;SDS011;64406;50.024;14.492;2023-08-07T14:25:56;0.28;;;0.25;;
75787;SDS011;64406;50.024;14.492;2023-08-07T14:28:21;0.68;;;0.32;;
75787;SDS011;64406;50.024;14.492;2023-08-07T14:30:47;0.40;;;0.40;;
75787;SDS011;64406;50.024;14.492;2023-08-07T14:33:13;0.30;;;0.30;;
75787;SDS011;64406;50.024;14.492;2023-08-07T14:35:39;0.30;;;0.30;;
75787;SDS011;64406;50.024;14.492;2023-08-07T14:38:04;0.57;;;0.32;;